createdAt,value
2018-11-05T00:01:56.859Z,225.57
2018-11-05T00:04:40.758Z,192.40
2018-11-05T00:07:24.161Z,152.03
2018-11-05T00:10:06.940Z,142.07
2018-11-05T00:12:51.047Z,179.57
2018-11-05T00:15:33.941Z,193.73
2018-11-05T00:18:17.423Z,193.73
2018-11-05T00:20:57.616Z,207.97
2018-11-05T00:23:36.961Z,235.17
2018-11-05T00:26:19.574Z,249.33
2018-11-05T00:28:58.425Z,227.20
2018-11-05T00:31:38.580Z,233.50
2018-11-05T00:34:21.162Z,216.63
2018-11-05T00:37:03.279Z,197.23
2018-11-05T00:39:41.982Z,164.17
2018-11-05T00:42:21.881Z,137.87
2018-11-05T00:45:00.556Z,139.43
2018-11-05T00:47:39.166Z,141.43
2018-11-05T00:50:20.879Z,130.20
2018-11-05T00:53:03.956Z,129.13
2018-11-05T00:55:46.005Z,129.03
2018-11-05T00:58:29.129Z,115.07
2018-11-05T01:01:12.199Z,100.37
2018-11-05T01:03:55.296Z,89.07
2018-11-05T01:06:38.625Z,104.17
2018-11-05T01:09:21.117Z,94.73
2018-11-05T01:12:03.882Z,96.10
2018-11-05T01:14:47.686Z,99.43
2018-11-05T01:17:31.879Z,85.83
2018-11-05T01:20:18.947Z,83.80
2018-11-05T01:23:03.862Z,98.47
2018-11-05T01:25:47.816Z,89.27
2018-11-05T01:28:31.906Z,90.73
2018-11-05T01:31:16.019Z,90.80
2018-11-05T01:34:00.040Z,88.03
2018-11-05T01:36:43.143Z,91.47
2018-11-05T01:39:27.120Z,91.57
2018-11-05T01:42:10.718Z,118.60
2018-11-05T01:44:52.720Z,117.23
2018-11-05T01:47:35.828Z,112.40
2018-11-05T01:50:21.016Z,119.87
2018-11-05T01:53:04.363Z,104.47
2018-11-05T01:55:47.656Z,86.83
2018-11-05T01:58:30.599Z,86.57
2018-11-05T02:01:14.117Z,84.03
2018-11-05T02:03:57.703Z,81.90
2018-11-05T02:06:41.217Z,83.97
2018-11-05T02:09:24.463Z,81.53
2018-11-05T02:12:03.960Z,81.27
2018-11-05T02:14:45.175Z,79.00
2018-11-05T02:17:27.819Z,72.93
2018-11-05T02:20:11.101Z,71.20
2018-11-05T02:22:53.336Z,74.60
2018-11-05T02:25:36.710Z,79.17
2018-11-05T02:28:21.297Z,78.27
2018-11-05T02:31:04.575Z,85.53
2018-11-05T02:33:48.176Z,90.70
2018-11-05T02:36:32.679Z,119.13
2018-11-05T02:39:18.792Z,115.30
2018-11-05T02:42:01.957Z,131.10
2018-11-05T02:44:46.338Z,130.97
2018-11-05T02:47:29.281Z,130.30
2018-11-05T02:50:12.763Z,138.57
2018-11-05T02:52:56.158Z,146.60
2018-11-05T02:55:39.641Z,139.07
2018-11-05T02:58:22.738Z,144.57
2018-11-05T03:01:05.239Z,143.20
2018-11-05T03:03:47.800Z,141.93
2018-11-05T03:06:30.840Z,140.47
2018-11-05T03:09:17.399Z,128.67
2018-11-05T03:12:00.278Z,115.10
2018-11-05T03:14:43.119Z,105.20
2018-11-05T03:17:25.798Z,113.23
2018-11-05T03:20:08.624Z,97.57
2018-11-05T03:22:51.580Z,96.10
2018-11-05T03:25:28.543Z,89.57
2018-11-05T03:28:11.140Z,82.67
2018-11-05T03:30:54.229Z,92.73
2018-11-05T03:33:36.766Z,120.27
2018-11-05T03:36:21.426Z,155.27
2018-11-05T03:39:03.521Z,153.60
2018-11-05T03:41:47.143Z,141.47
2018-11-05T03:44:43.322Z,178.90
2018-11-05T03:47:26.654Z,170.63
2018-11-05T03:50:09.761Z,178.73
2018-11-05T03:52:53.017Z,143.87
2018-11-05T03:55:35.929Z,169.70
2018-11-05T03:58:18.400Z,171.07
2018-11-05T04:01:01.421Z,128.60
2018-11-05T04:03:44.027Z,153.43
2018-11-05T04:06:27.210Z,165.90
2018-11-05T04:09:10.721Z,134.97
2018-11-05T04:11:53.813Z,133.13
2018-11-05T04:14:36.340Z,111.43
2018-11-05T04:17:20.703Z,97.30
2018-11-05T04:20:01.068Z,78.57
2018-11-05T04:22:41.018Z,53.70
2018-11-05T04:25:21.522Z,54.40
2018-11-05T04:28:04.424Z,52.90
2018-11-05T04:30:47.695Z,53.53
2018-11-05T04:33:29.479Z,65.43
2018-11-05T04:36:12.599Z,71.47
2018-11-05T04:38:52.958Z,81.57
2018-11-05T04:41:31.456Z,81.87
2018-11-05T04:44:10.577Z,73.47
2018-11-05T04:46:51.441Z,67.17
2018-11-05T04:49:31.881Z,68.47
2018-11-05T04:52:11.201Z,81.93
2018-11-05T04:54:53.603Z,85.77
2018-11-05T04:57:32.862Z,75.40
2018-11-05T05:00:20.206Z,65.20
2018-11-05T05:02:59.773Z,59.33
2018-11-05T05:05:42.463Z,66.00
2018-11-05T05:08:26.413Z,58.07
2018-11-05T05:11:06.419Z,62.73
2018-11-05T05:13:46.458Z,78.70
2018-11-05T05:16:28.161Z,98.30
2018-11-05T05:19:05.635Z,106.80
2018-11-05T05:21:47.357Z,94.17
2018-11-05T05:24:28.063Z,86.47
2018-11-05T05:27:05.761Z,76.20
2018-11-05T05:29:43.724Z,83.13
2018-11-05T05:32:24.419Z,95.23
2018-11-05T05:35:02.766Z,91.87
2018-11-05T05:37:48.408Z,89.93
2018-11-05T05:40:32.622Z,83.27
2018-11-05T05:43:12.797Z,85.40
2018-11-05T05:45:57.217Z,87.83
2018-11-05T05:48:34.939Z,74.10
2018-11-05T05:51:18.226Z,68.10
2018-11-05T05:54:01.512Z,70.73
2018-11-05T05:56:47.504Z,63.33
2018-11-05T05:59:27.139Z,59.97
2018-11-05T06:02:18.436Z,56.97
2018-11-05T06:04:58.136Z,61.70
2018-11-05T06:07:45.719Z,53.77
2018-11-05T06:10:24.338Z,52.90
2018-11-05T06:13:02.757Z,49.97
2018-11-05T06:15:43.497Z,48.40
2018-11-05T06:18:34.883Z,52.80
2018-11-05T06:21:12.618Z,57.43
2018-11-05T06:23:50.159Z,61.63
2018-11-05T06:26:27.102Z,57.37
2018-11-05T06:29:08.715Z,55.67
2018-11-05T06:31:47.538Z,52.60
2018-11-05T06:34:28.198Z,53.77
2018-11-05T06:37:08.301Z,55.70
2018-11-05T06:39:48.339Z,57.07
2018-11-05T06:42:31.383Z,65.27
2018-11-05T06:45:10.362Z,62.10
2018-11-05T06:47:52.035Z,60.03
2018-11-05T06:50:30.338Z,58.60
2018-11-05T06:53:14.467Z,61.80
2018-11-05T06:55:53.324Z,54.90
2018-11-05T06:58:33.579Z,60.37
2018-11-05T07:01:11.644Z,67.80
2018-11-05T07:03:54.373Z,72.77
2018-11-05T07:06:35.561Z,67.60
2018-11-05T07:09:19.579Z,63.27
2018-11-05T07:12:00.703Z,62.17
2018-11-05T07:14:39.458Z,64.40
2018-11-05T07:17:19.682Z,61.17
2018-11-05T07:20:00.498Z,67.53
2018-11-05T07:22:38.241Z,65.50
2018-11-05T07:25:17.642Z,65.20
2018-11-05T07:27:58.320Z,66.97
2018-11-05T07:30:38.763Z,65.80
2018-11-05T07:33:16.232Z,66.57
2018-11-05T07:35:52.999Z,65.67
2018-11-05T07:38:33.944Z,61.07
2018-11-05T07:41:13.097Z,53.03
2018-11-05T07:43:51.560Z,49.03
2018-11-05T07:46:29.879Z,50.37
2018-11-05T07:49:09.523Z,48.93
2018-11-05T07:51:47.284Z,47.30
2018-11-05T07:54:25.165Z,47.70
2018-11-05T07:57:04.399Z,46.93
2018-11-05T07:59:49.381Z,46.93
2018-11-05T08:02:31.639Z,46.17
2018-11-05T08:05:14.023Z,45.10
2018-11-05T08:07:56.478Z,44.73
2018-11-05T08:10:37.799Z,45.13
2018-11-05T08:13:15.622Z,44.83
2018-11-05T08:15:55.660Z,45.73
2018-11-05T08:18:37.088Z,46.93
2018-11-05T08:21:22.737Z,45.90
2018-11-05T08:24:02.858Z,56.53
2018-11-05T08:26:40.502Z,92.80
2018-11-05T08:29:22.861Z,91.33
2018-11-05T08:32:03.596Z,88.27
2018-11-05T08:34:44.065Z,61.67
2018-11-05T08:37:23.224Z,67.20
2018-11-05T08:40:03.524Z,83.33
2018-11-05T08:42:43.040Z,50.23
2018-11-05T08:45:24.240Z,54.70
2018-11-05T08:48:06.781Z,54.77
2018-11-05T08:50:44.584Z,41.23
2018-11-05T08:53:21.401Z,45.67
2018-11-05T08:56:03.543Z,69.07
2018-11-05T08:58:41.758Z,213.77
2018-11-05T09:01:24.424Z,84.60
2018-11-05T09:04:04.997Z,46.83
2018-11-05T09:06:43.103Z,446.90
2018-11-05T09:09:23.859Z,127.95
2018-11-05T09:12:03.515Z,57.50
2018-11-05T09:14:43.276Z,415.17
2018-11-05T09:17:23.717Z,103.90
2018-11-05T09:20:03.863Z,95.97
2018-11-05T09:22:45.800Z,55.77
2018-11-05T09:25:25.759Z,107.30
2018-11-05T09:28:03.428Z,100.30
2018-11-05T09:30:41.884Z,166.90
2018-11-05T09:33:18.658Z,62.37
2018-11-05T09:35:57.276Z,82.60
2018-11-05T09:38:35.381Z,117.33
2018-11-05T09:41:13.340Z,53.00
2018-11-05T09:43:51.680Z,229.13
2018-11-05T09:46:31.934Z,37.93
2018-11-05T09:49:26.725Z,92.20
2018-11-05T09:52:04.437Z,47.10
2018-11-05T09:54:58.201Z,42.00
2018-11-05T09:57:36.196Z,56.17
2018-11-05T10:00:20.401Z,69.43
2018-11-05T10:03:03.924Z,37.43
2018-11-05T10:05:45.104Z,57.03
2018-11-05T10:08:25.461Z,118.30
2018-11-05T10:11:03.482Z,68.87
2018-11-05T10:13:43.081Z,41.37
2018-11-05T10:16:21.471Z,61.73
2018-11-05T10:19:01.119Z,83.40
2018-11-05T10:21:41.039Z,46.80
2018-11-05T10:24:23.247Z,59.10
2018-11-05T10:27:03.978Z,31.70
2018-11-05T10:29:40.659Z,32.57
2018-11-05T10:32:18.642Z,86.20
2018-11-05T10:34:56.175Z,27.00
2018-11-05T10:37:35.979Z,76.67
2018-11-05T10:40:22.866Z,141.87
2018-11-05T10:43:01.042Z,238.33
2018-11-05T10:45:38.655Z,104.60
2018-11-05T10:48:20.144Z,25.37
2018-11-05T10:51:01.380Z,40.17
2018-11-05T10:53:43.004Z,92.37
2018-11-05T10:56:22.935Z,26.47
2018-11-05T10:59:01.976Z,33.47
2018-11-05T11:01:45.559Z,26.63
2018-11-05T11:04:35.239Z,36.60
2018-11-05T11:07:15.819Z,25.50
2018-11-05T11:09:52.918Z,26.67
2018-11-05T11:12:29.859Z,38.43
2018-11-05T11:15:12.138Z,40.43
2018-11-05T11:17:49.516Z,38.80
2018-11-05T11:20:26.983Z,35.83
2018-11-05T11:23:07.960Z,64.27
2018-11-05T11:25:46.795Z,81.50
2018-11-05T11:28:25.095Z,50.10
2018-11-05T11:31:03.366Z,184.73
2018-11-05T11:33:40.693Z,88.83
2018-11-05T11:36:21.582Z,59.77
2018-11-05T11:39:02.803Z,30.63
2018-11-05T11:41:48.299Z,29.20
2018-11-05T11:44:29.145Z,28.23
2018-11-05T11:47:11.923Z,28.53
2018-11-05T11:49:52.423Z,61.97
2018-11-05T11:52:29.458Z,106.97
2018-11-05T11:55:08.532Z,29.90
2018-11-05T11:57:47.459Z,32.00
2018-11-05T12:00:31.965Z,137.27
2018-11-05T12:03:12.994Z,27.37
2018-11-05T12:05:53.080Z,33.77
2018-11-05T12:08:32.942Z,32.23
2018-11-05T12:11:13.946Z,52.63
2018-11-05T12:13:53.010Z,37.60
2018-11-05T12:16:35.220Z,38.47
2018-11-05T12:19:15.687Z,33.10
2018-11-05T12:21:55.160Z,40.27
2018-11-05T12:24:33.787Z,33.03
2018-11-05T12:27:17.025Z,28.27
2018-11-05T12:29:54.760Z,34.23
2018-11-05T12:32:34.276Z,26.70
2018-11-05T12:35:14.346Z,35.00
2018-11-05T12:37:57.703Z,27.37
2018-11-05T12:40:37.940Z,31.53
2018-11-05T12:43:21.049Z,32.50
2018-11-05T12:46:03.276Z,42.57
2018-11-05T12:48:40.935Z,36.93
2018-11-05T12:51:22.065Z,38.97
2018-11-05T12:54:05.638Z,51.40
2018-11-05T12:56:46.756Z,48.33
2018-11-05T12:59:33.081Z,59.40
2018-11-05T13:02:17.746Z,60.40
2018-11-05T13:04:56.337Z,35.10
2018-11-05T13:07:35.092Z,57.50
2018-11-05T13:10:18.560Z,48.70
2018-11-05T13:12:56.942Z,58.23
2018-11-05T13:15:38.143Z,58.07
2018-11-05T13:18:18.162Z,38.50
2018-11-05T13:20:54.594Z,36.80
2018-11-05T13:23:36.101Z,37.00
2018-11-05T13:26:17.084Z,38.80
2018-11-05T13:28:55.360Z,28.27
2018-11-05T13:31:35.955Z,37.63
2018-11-05T13:34:13.238Z,37.17
2018-11-05T13:36:50.862Z,38.20
2018-11-05T13:39:29.597Z,35.03
2018-11-05T13:42:10.517Z,36.27
2018-11-05T13:44:51.046Z,35.77
2018-11-05T13:47:30.324Z,30.97
2018-11-05T13:50:09.910Z,34.43
2018-11-05T13:52:49.965Z,37.33
2018-11-05T13:55:29.364Z,29.87
2018-11-05T13:58:07.742Z,27.60
2018-11-05T14:00:46.361Z,25.73
2018-11-05T14:03:28.720Z,24.63
2018-11-05T14:06:09.778Z,25.73
2018-11-05T14:08:47.295Z,32.20
2018-11-05T14:11:27.417Z,35.67
2018-11-05T14:14:07.460Z,32.97
2018-11-05T14:16:45.820Z,35.90
2018-11-05T14:19:25.338Z,34.00
2018-11-05T14:22:08.741Z,37.20
2018-11-05T14:24:46.034Z,37.00
2018-11-05T14:27:28.548Z,30.00
2018-11-05T14:30:06.618Z,28.40
2018-11-05T14:32:47.221Z,28.73
2018-11-05T14:35:26.338Z,30.93
2018-11-05T14:38:10.438Z,28.53
2018-11-05T14:40:54.422Z,27.47
2018-11-05T14:43:38.382Z,26.73
2018-11-05T14:46:19.561Z,25.63
2018-11-05T14:48:57.700Z,26.43
2018-11-05T14:51:39.459Z,24.97
2018-11-05T14:54:17.576Z,24.87
2018-11-05T14:56:58.746Z,29.50
2018-11-05T14:59:35.878Z,28.17
2018-11-05T15:02:19.577Z,29.80
2018-11-05T15:05:06.136Z,32.27
2018-11-05T15:07:49.907Z,32.57
2018-11-05T15:10:35.242Z,35.93
2018-11-05T15:13:23.277Z,30.60
2018-11-05T15:16:01.697Z,30.80
2018-11-05T15:18:40.496Z,32.17
2018-11-05T15:21:20.995Z,30.83
2018-11-05T15:24:00.284Z,28.83
2018-11-05T15:26:40.603Z,26.17
2018-11-05T15:29:20.416Z,25.87
2018-11-05T15:32:02.159Z,26.77
2018-11-05T15:34:42.227Z,26.80
2018-11-05T15:37:20.443Z,27.57
2018-11-05T15:39:58.277Z,28.07
2018-11-05T15:42:37.218Z,30.37
2018-11-05T15:45:17.958Z,32.30
2018-11-05T15:47:59.818Z,41.87
2018-11-05T15:50:37.419Z,55.50
2018-11-05T15:53:18.645Z,84.93
2018-11-05T15:56:01.402Z,90.23
2018-11-05T15:58:42.419Z,75.33
2018-11-05T16:01:24.843Z,53.93
2018-11-05T16:04:02.442Z,36.80
2018-11-05T16:06:40.035Z,28.93
2018-11-05T16:09:17.732Z,105.97
2018-11-05T16:11:58.189Z,38.07
2018-11-05T16:14:38.840Z,58.97
2018-11-05T16:17:18.642Z,112.73
2018-11-05T16:19:55.875Z,143.57
2018-11-05T16:22:32.881Z,151.63
2018-11-05T16:25:15.385Z,147.10
2018-11-05T16:27:54.579Z,143.67
2018-11-05T16:30:35.176Z,116.03
2018-11-05T16:33:12.102Z,84.13
2018-11-05T16:35:50.276Z,57.97
2018-11-05T16:38:29.491Z,37.20
2018-11-05T16:41:07.680Z,41.30
2018-11-05T16:43:45.404Z,51.90
2018-11-05T16:46:24.479Z,76.30
2018-11-05T16:49:04.041Z,77.93
2018-11-05T16:51:46.437Z,64.80
2018-11-05T16:54:26.774Z,77.43
2018-11-05T16:57:07.884Z,71.67
2018-11-05T16:59:50.282Z,60.13
2018-11-05T17:02:31.366Z,43.17
2018-11-05T17:05:08.361Z,35.53
2018-11-05T17:07:46.263Z,38.20
2018-11-05T17:10:26.944Z,45.97
2018-11-05T17:13:10.554Z,39.60
2018-11-05T17:15:51.436Z,38.97
2018-11-05T17:18:35.601Z,38.50
2018-11-05T17:21:14.978Z,39.47
2018-11-05T17:23:56.621Z,39.47
2018-11-05T17:26:34.681Z,41.50
2018-11-05T17:29:13.158Z,41.47
2018-11-05T17:31:54.700Z,68.40
2018-11-05T17:34:36.164Z,86.17
2018-11-05T17:37:18.838Z,93.83
2018-11-05T17:40:01.105Z,101.40
2018-11-05T17:42:41.655Z,99.63
2018-11-05T17:45:21.080Z,78.40
2018-11-05T17:47:58.242Z,63.63
2018-11-05T17:50:34.860Z,49.00
2018-11-05T17:53:11.598Z,42.77
2018-11-05T17:55:50.402Z,57.37
2018-11-05T17:58:30.097Z,65.30
2018-11-05T18:01:10.395Z,106.13
2018-11-05T18:03:48.290Z,118.20
2018-11-05T18:06:41.398Z,173.13
2018-11-05T18:09:22.373Z,159.33
2018-11-05T18:12:02.882Z,154.93
2018-11-05T18:14:43.695Z,165.97
2018-11-05T18:17:24.233Z,176.30
2018-11-05T18:20:07.122Z,176.70
2018-11-05T18:22:45.461Z,104.50
2018-11-05T18:25:23.418Z,82.30
2018-11-05T18:28:00.404Z,178.03
2018-11-05T18:30:39.365Z,265.77
2018-11-05T18:33:20.201Z,361.83
2018-11-05T18:36:02.397Z,282.93
2018-11-05T18:38:43.879Z,322.30
2018-11-05T18:41:22.977Z,409.10
2018-11-05T18:44:03.939Z,360.73
2018-11-05T18:46:47.682Z,456.57
2018-11-05T18:49:25.125Z,384.40
2018-11-05T18:52:08.564Z,426.13
2018-11-05T18:54:48.996Z,441.30
2018-11-05T18:57:27.398Z,427.77
2018-11-05T19:00:07.121Z,394.23
2018-11-05T19:02:47.924Z,382.20
2018-11-05T19:05:26.838Z,384.90
2018-11-05T19:08:03.659Z,384.90
2018-11-05T19:10:40.556Z,394.77
2018-11-05T19:13:19.515Z,372.30
2018-11-05T19:16:00.280Z,369.63
2018-11-05T19:18:43.060Z,363.07
2018-11-05T19:21:24.818Z,326.83
2018-11-05T19:24:03.645Z,320.53
2018-11-05T19:26:41.739Z,309.73
2018-11-05T19:29:22.459Z,310.33
2018-11-05T19:31:58.981Z,325.57
2018-11-05T19:34:42.615Z,325.37
2018-11-05T19:37:23.117Z,304.60
2018-11-05T19:40:04.159Z,287.80
2018-11-05T19:42:44.939Z,282.10
2018-11-05T19:45:27.161Z,287.33
2018-11-05T19:48:04.496Z,278.93
2018-11-05T19:50:45.346Z,242.20
2018-11-05T19:53:25.963Z,198.60
2018-11-05T19:56:06.341Z,139.90
2018-11-05T19:58:45.439Z,70.37
2018-11-05T20:01:24.920Z,54.33
2018-11-05T20:04:04.859Z,56.70
2018-11-05T20:06:43.339Z,63.57
2018-11-05T20:09:22.904Z,65.93
2018-11-05T20:12:04.061Z,55.37
2018-11-05T20:14:46.240Z,50.40
2018-11-05T20:17:29.058Z,50.20
2018-11-05T20:20:07.203Z,58.23
2018-11-05T20:22:45.040Z,57.43
2018-11-05T20:25:27.561Z,59.80
2018-11-05T20:28:06.122Z,57.73
2018-11-05T20:30:47.998Z,48.07
2018-11-05T20:33:28.595Z,51.00
2018-11-05T20:36:07.577Z,69.23
2018-11-05T20:38:49.760Z,79.50
2018-11-05T20:41:28.584Z,77.60
2018-11-05T20:44:09.375Z,72.67
2018-11-05T20:46:48.612Z,61.13
2018-11-05T20:49:27.280Z,52.23
2018-11-05T20:52:07.279Z,46.40
2018-11-05T20:54:49.823Z,44.13
2018-11-05T20:57:30.700Z,56.60
2018-11-05T21:00:09.760Z,74.37
2018-11-05T21:02:47.921Z,90.10
2018-11-05T21:05:29.383Z,95.30
2018-11-05T21:08:11.298Z,105.10
2018-11-05T21:10:48.107Z,99.53
2018-11-05T21:13:28.221Z,95.10
2018-11-05T21:16:11.059Z,85.30
2018-11-05T21:18:51.224Z,77.90
2018-11-05T21:21:31.390Z,87.20
2018-11-05T21:24:12.239Z,94.47
2018-11-05T21:26:51.597Z,95.37
2018-11-05T21:29:34.582Z,91.73
2018-11-05T21:32:14.903Z,95.30
2018-11-05T21:34:54.252Z,98.93
2018-11-05T21:37:34.136Z,112.23
2018-11-05T21:40:19.095Z,116.93
2018-11-05T21:42:58.036Z,115.53
2018-11-05T21:45:39.174Z,108.80
2018-11-05T21:48:19.719Z,101.67
2018-11-05T21:51:00.020Z,100.47
2018-11-05T21:53:38.963Z,97.13
2018-11-05T21:56:19.031Z,101.03
2018-11-05T21:58:58.445Z,99.27
2018-11-05T22:01:38.561Z,95.20
2018-11-05T22:04:16.802Z,91.10
2018-11-05T22:06:57.563Z,86.07
2018-11-05T22:09:36.077Z,74.53
2018-11-05T22:12:14.741Z,69.23
2018-11-05T22:14:53.338Z,59.40
2018-11-05T22:17:32.209Z,52.87
2018-11-05T22:20:12.778Z,55.27
2018-11-05T22:22:53.265Z,54.60
2018-11-05T22:25:33.402Z,56.87
2018-11-05T22:28:13.724Z,55.37
2018-11-05T22:30:54.281Z,52.37
2018-11-05T22:33:33.960Z,47.60
2018-11-05T22:36:12.419Z,44.90
2018-11-05T22:38:52.428Z,43.90
2018-11-05T22:41:31.422Z,42.93
2018-11-05T22:44:10.637Z,51.67
2018-11-05T22:46:50.419Z,52.37
2018-11-05T22:49:29.083Z,47.80
2018-11-05T22:52:06.161Z,45.80
2018-11-05T22:54:45.135Z,42.23
2018-11-05T22:57:23.818Z,42.57
2018-11-05T23:00:00.793Z,42.93
2018-11-05T23:02:42.983Z,42.40
2018-11-05T23:05:22.839Z,43.93
2018-11-05T23:08:03.840Z,43.10
2018-11-05T23:10:43.060Z,43.27
2018-11-05T23:13:22.198Z,42.80
2018-11-05T23:16:00.843Z,44.67
2018-11-05T23:18:40.482Z,45.90
2018-11-05T23:21:23.803Z,46.30
2018-11-05T23:24:02.062Z,51.30
2018-11-05T23:26:40.726Z,55.33
2018-11-05T23:29:18.915Z,58.07
2018-11-05T23:31:58.517Z,56.70
2018-11-05T23:34:37.040Z,59.90
2018-11-05T23:37:15.881Z,65.60
2018-11-05T23:39:54.659Z,71.60
2018-11-05T23:42:34.020Z,71.53
2018-11-05T23:45:17.559Z,81.23
2018-11-05T23:47:56.201Z,77.83
2018-11-05T23:50:34.562Z,76.87
2018-11-05T23:53:14.225Z,72.80
2018-11-05T23:55:52.542Z,63.33
2018-11-05T23:58:31.180Z,62.10
